createdAt,value
2019-02-15T00:00:31.270Z,100257.20
2019-02-15T00:03:04.094Z,100261.50
2019-02-15T00:05:34.523Z,100250.29
2019-02-15T00:08:08.083Z,100260.67
2019-02-15T00:10:38.495Z,100260.22
2019-02-15T00:13:13.570Z,100252.05
2019-02-15T00:15:41.607Z,100241.70
2019-02-15T00:18:40.298Z,100238.23
2019-02-15T00:21:15.741Z,100223.59
2019-02-15T00:23:46.411Z,100230.02
2019-02-15T00:26:16.921Z,100214.91
2019-02-15T00:28:47.426Z,100204.55
2019-02-15T00:31:21.973Z,100205.02
2019-02-15T00:33:52.390Z,100188.70
2019-02-15T00:36:23.051Z,100185.25
2019-02-15T00:38:53.354Z,100173.63
2019-02-15T00:41:23.829Z,100155.99
2019-02-15T00:43:54.511Z,100149.95
2019-02-15T00:46:34.936Z,100151.23
2019-02-15T00:49:07.251Z,100142.22
2019-02-15T00:51:52.547Z,100128.86
2019-02-15T00:54:31.491Z,100119.75
2019-02-15T00:57:28.496Z,100110.72
2019-02-15T01:00:13.094Z,100103.83
2019-02-15T01:03:01.053Z,100084.02
2019-02-15T01:06:06.275Z,100070.23
2019-02-15T01:08:44.960Z,100065.04
2019-02-15T01:11:22.734Z,100053.41
2019-02-15T01:13:53.124Z,100070.61
2019-02-15T01:16:23.520Z,100059.41
2019-02-15T01:18:54.163Z,100057.67
2019-02-15T01:21:24.720Z,100064.11
2019-02-15T01:23:55.123Z,100060.63
2019-02-15T01:26:33.909Z,100052.89
2019-02-15T01:29:35.705Z,100061.45
2019-02-15T01:32:24.306Z,100042.48
2019-02-15T01:35:23.734Z,100046.75
2019-02-15T01:38:05.299Z,100045.94
2019-02-15T01:40:47.765Z,100037.70
2019-02-15T01:43:39.796Z,100033.42
2019-02-15T01:46:19.393Z,100001.48
2019-02-15T01:48:50.026Z,100007.92
2019-02-15T01:51:20.480Z,99998.48
2019-02-15T01:53:50.863Z,99990.70
2019-02-15T01:56:21.363Z,99988.03
2019-02-15T01:58:51.904Z,99988.50
2019-02-15T02:01:24.971Z,99982.84
2019-02-15T02:03:55.466Z,99958.27
2019-02-15T02:06:26.238Z,99954.78
2019-02-15T02:08:56.736Z,99960.81
2019-02-15T02:11:27.231Z,99962.55
2019-02-15T02:13:57.738Z,99926.81
2019-02-15T02:16:28.622Z,99908.63
2019-02-15T02:18:59.204Z,99910.31
2019-02-15T02:21:29.978Z,99906.02
2019-02-15T02:24:00.686Z,99894.39
2019-02-15T02:26:31.914Z,99897.88
2019-02-15T02:29:02.300Z,99887.05
2019-02-15T02:31:32.731Z,99892.66
2019-02-15T02:34:04.357Z,99875.79
2019-02-15T02:36:53.664Z,99875.84
2019-02-15T02:39:25.338Z,99864.61
2019-02-15T02:41:55.853Z,99857.39
2019-02-15T02:44:26.755Z,99847.84
2019-02-15T02:46:57.173Z,99852.56
2019-02-15T02:49:27.727Z,99827.54
2019-02-15T02:51:58.225Z,99816.75
2019-02-15T02:54:28.803Z,99833.91
2019-02-15T02:56:59.273Z,99821.40
2019-02-15T02:59:29.856Z,99832.54
2019-02-15T03:02:00.253Z,99846.38
2019-02-15T03:04:30.895Z,99812.75
2019-02-15T03:07:01.474Z,99809.26
2019-02-15T03:09:31.992Z,99812.75
2019-02-15T03:12:02.929Z,99801.94
2019-02-15T03:14:33.771Z,99775.16
2019-02-15T03:17:04.261Z,99779.06
2019-02-15T03:19:34.747Z,99772.11
2019-02-15T03:22:05.439Z,99749.34
2019-02-15T03:24:36.031Z,99744.13
2019-02-15T03:27:06.665Z,99745.87
2019-02-15T03:29:37.508Z,99745.82
2019-02-15T03:32:08.091Z,99752.31
2019-02-15T03:34:38.611Z,99741.16
2019-02-15T03:37:43.761Z,99743.30
2019-02-15T03:40:25.573Z,99747.55
2019-02-15T03:42:55.899Z,99729.52
2019-02-15T03:45:26.554Z,99723.88
2019-02-15T03:47:57.111Z,99727.20
2019-02-15T03:50:27.777Z,99732.38
2019-02-15T03:52:58.796Z,99722.03
2019-02-15T03:55:30.053Z,99703.16
2019-02-15T03:58:00.777Z,99701.09
2019-02-15T04:00:32.531Z,99701.00
2019-02-15T04:03:03.217Z,99706.23
2019-02-15T04:05:34.950Z,99699.77
2019-02-15T04:08:05.866Z,99697.50
2019-02-15T04:10:36.726Z,99686.33
2019-02-15T04:13:07.679Z,99678.06
2019-02-15T04:15:38.424Z,99687.59
2019-02-15T04:18:09.082Z,99687.97
2019-02-15T04:20:39.706Z,99693.95
2019-02-15T04:23:12.383Z,99681.89
2019-02-15T04:25:42.986Z,99676.23
2019-02-15T04:28:13.572Z,99663.73
2019-02-15T04:30:43.991Z,99668.42
2019-02-15T04:33:14.724Z,99664.44
2019-02-15T04:35:45.231Z,99667.83
2019-02-15T04:38:16.139Z,99670.81
2019-02-15T04:40:46.917Z,99657.48
2019-02-15T04:43:17.564Z,99649.27
2019-02-15T04:45:48.508Z,99656.94
2019-02-15T04:48:20.202Z,99650.06
2019-02-15T04:50:51.082Z,99646.56
2019-02-15T04:53:22.333Z,99653.92
2019-02-15T04:55:53.000Z,99654.78
2019-02-15T04:58:23.774Z,99645.20
2019-02-15T05:00:54.579Z,99640.41
2019-02-15T05:03:25.245Z,99618.41
2019-02-15T05:05:56.216Z,99611.36
2019-02-15T05:08:27.917Z,99599.66
2019-02-15T05:10:58.926Z,99606.16
2019-02-15T05:13:29.489Z,99597.59
2019-02-15T05:16:00.542Z,99597.05
2019-02-15T05:18:31.657Z,99590.02
2019-02-15T05:21:02.387Z,99570.55
2019-02-15T05:23:33.833Z,99564.51
2019-02-15T05:26:04.574Z,99568.70
2019-02-15T05:28:35.058Z,99584.63
2019-02-15T05:31:06.287Z,99551.31
2019-02-15T05:33:37.121Z,99542.66
2019-02-15T05:36:07.777Z,99542.55
2019-02-15T05:38:41.489Z,99555.01
2019-02-15T05:41:11.948Z,99555.41
2019-02-15T05:43:42.529Z,99538.94
2019-02-15T05:46:14.033Z,99545.26
2019-02-15T05:48:44.982Z,99511.55
2019-02-15T05:51:15.943Z,99505.41
2019-02-15T05:53:47.203Z,99502.81
2019-02-15T05:56:17.729Z,99522.61
2019-02-15T05:58:49.409Z,99520.91
2019-02-15T06:01:22.031Z,99511.45
2019-02-15T06:03:52.598Z,99507.94
2019-02-15T06:06:23.455Z,99504.44
2019-02-15T06:08:54.026Z,99498.40
2019-02-15T06:11:24.705Z,99491.82
2019-02-15T06:13:57.576Z,99473.48
2019-02-15T06:16:28.367Z,99490.28
2019-02-15T06:18:59.497Z,99491.14
2019-02-15T06:21:30.449Z,99492.52
2019-02-15T06:24:01.855Z,99496.69
2019-02-15T06:26:32.699Z,99495.65
2019-02-15T06:29:03.530Z,99490.90
2019-02-15T06:31:34.148Z,99501.62
2019-02-15T06:34:06.099Z,99519.66
2019-02-15T06:36:36.491Z,99534.60
2019-02-15T06:39:14.135Z,99528.95
2019-02-15T06:41:44.848Z,99529.42
2019-02-15T06:44:16.353Z,99529.34
2019-02-15T06:46:47.512Z,99540.80
2019-02-15T06:49:18.655Z,99538.46
2019-02-15T06:51:49.170Z,99545.38
2019-02-15T06:54:20.389Z,99539.29
2019-02-15T06:56:51.211Z,99528.56
2019-02-15T06:59:44.363Z,99529.78
2019-02-15T07:09:59.085Z,99511.02
2019-02-15T07:12:30.780Z,99507.88
2019-02-15T07:15:01.607Z,99498.84
2019-02-15T07:17:32.256Z,99498.88
2019-02-15T07:20:03.161Z,99487.21
2019-02-15T07:22:33.629Z,99473.89
2019-02-15T07:25:05.336Z,99482.21
2019-02-15T07:27:36.119Z,99466.08
2019-02-15T07:30:08.759Z,99470.32
2019-02-15T07:32:39.316Z,99461.25
2019-02-15T07:35:10.117Z,99450.00
2019-02-15T07:37:40.639Z,99452.09
2019-02-15T07:40:11.314Z,99454.02
2019-02-15T07:42:42.220Z,99437.00
2019-02-15T07:45:12.947Z,99439.43
2019-02-15T07:47:43.971Z,99440.19
2019-02-15T07:50:14.543Z,99431.71
2019-02-15T07:52:46.371Z,99441.88
2019-02-15T07:55:17.256Z,99430.48
2019-02-15T07:57:48.021Z,99428.00
2019-02-15T08:00:19.777Z,99442.27
2019-02-15T08:02:50.685Z,99452.87
2019-02-15T08:05:23.400Z,99454.69
2019-02-15T08:07:54.087Z,99460.38
2019-02-15T08:10:25.110Z,99458.50
2019-02-15T08:12:55.820Z,99452.86
2019-02-15T08:15:35.629Z,99458.65
2019-02-15T08:17:59.939Z,99461.25
2019-02-15T08:20:30.789Z,99457.48
2019-02-15T08:23:01.689Z,99450.71
2019-02-15T08:25:32.419Z,99455.97
2019-02-15T08:28:03.505Z,99451.91
2019-02-15T08:30:34.277Z,99434.79
2019-02-15T08:33:04.969Z,99426.80
2019-02-15T08:35:35.682Z,99421.13
2019-02-15T08:38:06.607Z,99417.97
2019-02-15T08:40:37.563Z,99419.74
2019-02-15T08:43:08.351Z,99418.75
2019-02-15T08:45:38.994Z,99402.52
2019-02-15T08:48:09.825Z,99401.27
2019-02-15T08:50:40.761Z,99391.73
2019-02-15T08:53:11.561Z,99390.73
2019-02-15T08:55:42.412Z,99388.01
2019-02-15T08:58:13.231Z,99393.86
2019-02-15T09:00:44.108Z,99383.14
2019-02-15T09:03:14.961Z,99368.20
2019-02-15T09:05:46.076Z,99366.64
2019-02-15T09:08:16.977Z,99367.66
2019-02-15T09:10:48.823Z,99357.43
2019-02-15T09:13:19.291Z,99359.20
2019-02-15T09:15:50.375Z,99350.45
2019-02-15T09:18:20.867Z,99342.09
2019-02-15T09:20:51.416Z,99354.13
2019-02-15T09:23:22.054Z,99339.10
2019-02-15T09:25:52.902Z,99332.90
2019-02-15T09:28:32.740Z,99342.14
2019-02-15T09:31:03.432Z,99330.45
2019-02-15T09:33:34.963Z,99330.70
2019-02-15T09:36:05.697Z,99323.66
2019-02-15T09:38:36.593Z,99328.19
2019-02-15T09:41:07.316Z,99330.83
2019-02-15T09:43:38.027Z,99334.88
2019-02-15T09:46:09.518Z,99310.91
2019-02-15T09:48:40.229Z,99331.31
2019-02-15T09:51:11.513Z,99328.09
2019-02-15T09:53:42.350Z,99326.89
2019-02-15T09:56:13.031Z,99331.37
2019-02-15T09:58:43.835Z,99329.98
2019-02-15T10:01:14.496Z,99339.31
2019-02-15T10:03:45.061Z,99350.12
2019-02-15T10:06:15.651Z,99331.08
2019-02-15T10:08:46.844Z,99326.59
2019-02-15T10:11:17.655Z,99328.48
2019-02-15T10:13:48.705Z,99322.98
2019-02-15T10:16:28.333Z,99329.06
2019-02-15T10:18:52.118Z,99317.21
2019-02-15T10:21:24.324Z,99321.70
2019-02-15T10:23:55.009Z,99327.36
2019-02-15T10:26:26.007Z,99335.88
2019-02-15T10:28:57.142Z,99337.66
2019-02-15T10:31:28.769Z,99341.59
2019-02-15T10:33:59.742Z,99327.20
2019-02-15T10:36:30.785Z,99331.05
2019-02-15T10:39:02.428Z,99331.14
2019-02-15T10:41:36.760Z,99342.78
2019-02-15T10:44:07.825Z,99344.03
2019-02-15T10:46:38.500Z,99339.47
2019-02-15T10:49:09.438Z,99342.83
2019-02-15T10:51:40.038Z,99335.36
2019-02-15T10:54:10.992Z,99336.86
2019-02-15T10:56:42.765Z,99324.95
2019-02-15T10:59:14.372Z,99323.98
2019-02-15T11:01:45.057Z,99324.27
2019-02-15T11:04:17.231Z,99323.03
2019-02-15T11:06:49.094Z,99319.27
2019-02-15T11:09:19.735Z,99314.19
2019-02-15T11:11:50.657Z,99297.44
2019-02-15T11:14:21.760Z,99290.33
2019-02-15T11:16:52.738Z,99266.88
2019-02-15T11:19:23.535Z,99253.27
2019-02-15T11:21:54.261Z,99265.01
2019-02-15T11:24:25.181Z,99249.61
2019-02-15T11:26:56.013Z,99237.39
2019-02-15T11:29:28.130Z,99222.88
2019-02-15T11:32:01.289Z,99218.76
2019-02-15T11:34:32.252Z,99221.72
2019-02-15T11:37:03.164Z,99242.08
2019-02-15T11:39:34.099Z,99256.83
2019-02-15T11:42:04.979Z,99269.37
2019-02-15T11:44:35.619Z,99277.18
2019-02-15T11:47:06.487Z,99286.33
2019-02-15T11:49:37.328Z,99291.66
2019-02-15T11:52:08.511Z,99298.51
2019-02-15T11:54:39.033Z,99292.09
2019-02-15T11:57:09.454Z,99290.50
2019-02-15T11:59:40.598Z,99294.01
2019-02-15T12:02:11.392Z,99295.80
2019-02-15T12:04:43.199Z,99281.58
2019-02-15T12:07:14.565Z,99277.95
2019-02-15T12:09:45.375Z,99289.98
2019-02-15T12:12:16.182Z,99278.81
2019-02-15T12:14:46.957Z,99279.56
2019-02-15T12:17:20.746Z,99268.95
2019-02-15T12:19:51.173Z,99248.80
2019-02-15T12:22:21.862Z,99245.50
2019-02-15T12:24:52.958Z,99240.79
2019-02-15T12:27:23.469Z,99240.58
2019-02-15T12:29:55.906Z,99232.42
2019-02-15T12:32:26.679Z,99233.14
2019-02-15T12:34:57.395Z,99242.83
2019-02-15T12:37:28.149Z,99231.52
2019-02-15T12:39:59.177Z,99221.77
2019-02-15T12:42:30.257Z,99221.00
2019-02-15T12:45:01.090Z,99221.00
2019-02-15T12:47:31.775Z,99210.22
2019-02-15T12:50:02.840Z,99204.47
2019-02-15T12:52:35.243Z,99215.03
2019-02-15T12:55:06.029Z,99203.55
2019-02-15T12:57:37.130Z,99196.36
2019-02-15T13:00:10.724Z,99212.23
2019-02-15T13:02:41.664Z,99210.55
2019-02-15T13:05:14.187Z,99218.51
2019-02-15T13:07:45.232Z,99215.80
2019-02-15T13:10:21.511Z,99218.45
2019-02-15T13:12:52.715Z,99203.11
2019-02-15T13:15:23.304Z,99196.77
2019-02-15T13:17:54.183Z,99203.81
2019-02-15T13:20:25.020Z,99213.90
2019-02-15T13:22:56.075Z,99205.78
2019-02-15T13:25:34.918Z,99215.69
2019-02-15T13:28:12.736Z,99230.23
2019-02-15T13:30:43.410Z,99202.05
2019-02-15T13:33:14.219Z,99194.57
2019-02-15T13:35:45.195Z,99211.30
2019-02-15T13:38:15.755Z,99210.65
2019-02-15T13:40:47.055Z,99213.43
2019-02-15T13:43:17.958Z,99191.86
2019-02-15T13:45:48.645Z,99204.27
2019-02-15T13:48:19.359Z,99219.30
2019-02-15T13:50:50.446Z,99211.02
2019-02-15T13:53:22.094Z,99208.95
2019-02-15T13:55:52.964Z,99204.25
2019-02-15T13:58:24.364Z,99194.98
2019-02-15T14:00:55.067Z,99201.70
2019-02-15T14:03:27.916Z,99189.73
2019-02-15T14:05:58.799Z,99212.30
2019-02-15T14:08:30.324Z,99200.94
2019-02-15T14:11:01.289Z,99194.94
2019-02-15T14:13:32.959Z,99218.25
2019-02-15T14:16:04.929Z,99206.43
2019-02-15T14:18:35.843Z,99220.95
2019-02-15T14:21:07.118Z,99198.42
2019-02-15T14:23:37.832Z,99225.53
2019-02-15T14:26:08.981Z,99209.20
2019-02-15T14:28:41.319Z,99224.22
2019-02-15T14:31:11.811Z,99238.02
2019-02-15T14:33:42.749Z,99239.17
2019-02-15T14:36:13.523Z,99253.70
2019-02-15T14:38:44.421Z,99258.56
2019-02-15T14:41:16.401Z,99256.72
2019-02-15T14:43:47.924Z,99265.31
2019-02-15T14:46:18.715Z,99277.55
2019-02-15T14:48:49.456Z,99250.54
2019-02-15T14:51:20.449Z,99263.73
2019-02-15T14:53:51.329Z,99263.28
2019-02-15T14:56:22.004Z,99265.02
2019-02-15T14:58:52.971Z,99263.82
2019-02-15T15:01:23.996Z,99268.95
2019-02-15T15:03:55.331Z,99258.28
2019-02-15T15:06:26.146Z,99256.98
2019-02-15T15:08:59.675Z,99260.23
2019-02-15T15:11:30.579Z,99270.89
2019-02-15T15:14:01.519Z,99278.42
2019-02-15T15:16:32.483Z,99274.97
2019-02-15T15:19:03.732Z,99276.83
2019-02-15T15:21:35.133Z,99285.66
2019-02-15T15:24:05.904Z,99275.72
2019-02-15T15:26:37.060Z,99277.48
2019-02-15T15:29:07.964Z,99280.56
2019-02-15T15:31:39.378Z,99267.20
2019-02-15T15:34:19.656Z,99273.39
2019-02-15T15:36:53.446Z,99303.73
2019-02-15T15:39:24.313Z,99289.95
2019-02-15T15:41:57.525Z,99295.00
2019-02-15T15:44:28.118Z,99299.55
2019-02-15T15:46:59.001Z,99302.64
2019-02-15T15:49:29.946Z,99306.62
2019-02-15T15:52:00.751Z,99297.92
2019-02-15T15:54:31.452Z,99307.70
2019-02-15T15:57:05.271Z,99309.30
2019-02-15T15:59:36.093Z,99310.33
2019-02-15T16:02:09.507Z,99314.95
2019-02-15T16:04:40.254Z,99311.63
2019-02-15T16:07:11.171Z,99310.30
2019-02-15T16:09:41.665Z,99322.08
2019-02-15T16:12:18.999Z,99322.70
2019-02-15T16:14:53.410Z,99321.97
2019-02-15T16:17:30.930Z,99323.56
2019-02-15T16:20:01.868Z,99321.69
2019-02-15T16:22:32.480Z,99318.28
2019-02-15T16:25:06.399Z,99318.52
2019-02-15T16:27:38.043Z,99324.39
2019-02-15T16:30:10.099Z,99328.70
2019-02-15T16:32:40.839Z,99319.66
2019-02-15T16:35:13.233Z,99314.45
2019-02-15T16:38:18.837Z,99322.73
2019-02-15T16:40:49.731Z,99325.72
2019-02-15T16:43:20.891Z,99323.66
2019-02-15T16:45:52.362Z,99310.55
2019-02-15T16:48:23.577Z,99294.69
2019-02-15T16:50:54.548Z,99321.57
2019-02-15T16:53:25.290Z,99311.36
2019-02-15T16:55:56.438Z,99317.39
2019-02-15T16:58:27.123Z,99321.77
2019-02-15T17:00:58.149Z,99306.38
2019-02-15T17:03:29.046Z,99296.50
2019-02-15T17:05:59.906Z,99300.45
2019-02-15T17:08:30.639Z,99291.13
2019-02-15T17:11:01.470Z,99285.88
2019-02-15T17:13:34.614Z,99293.09
2019-02-15T17:16:05.179Z,99292.60
2019-02-15T17:18:35.903Z,99297.38
2019-02-15T17:21:06.775Z,99296.94
2019-02-15T17:23:37.539Z,99288.91
2019-02-15T17:26:08.110Z,99295.75
2019-02-15T17:28:38.843Z,99292.98
2019-02-15T17:31:09.688Z,99292.14
2019-02-15T17:33:40.244Z,99279.88
2019-02-15T17:36:12.195Z,99280.79
2019-02-15T17:38:43.095Z,99276.94
2019-02-15T17:41:13.956Z,99267.56
2019-02-15T17:43:44.806Z,99266.02
2019-02-15T17:46:15.635Z,99272.94
2019-02-15T17:48:46.676Z,99278.47
2019-02-15T17:51:18.035Z,99265.77
2019-02-15T17:53:48.953Z,99275.41
2019-02-15T17:56:20.405Z,99280.41
2019-02-15T17:58:51.650Z,99271.17
2019-02-15T18:01:22.418Z,99277.13
2019-02-15T18:03:53.388Z,99273.51
2019-02-15T18:06:26.998Z,99267.98
2019-02-15T18:08:58.116Z,99272.31
2019-02-15T18:11:28.674Z,99263.99
2019-02-15T18:13:59.613Z,99274.62
2019-02-15T18:16:30.490Z,99261.19
2019-02-15T18:19:09.644Z,99267.05
2019-02-15T18:21:33.864Z,99274.69
2019-02-15T18:24:05.502Z,99268.30
2019-02-15T18:26:36.864Z,99260.11
2019-02-15T18:29:07.771Z,99267.33
2019-02-15T18:31:38.480Z,99270.28
2019-02-15T18:34:11.993Z,99270.33
2019-02-15T18:36:43.397Z,99268.78
2019-02-15T18:39:16.039Z,99276.95
2019-02-15T18:41:47.045Z,99268.73
2019-02-15T18:44:17.940Z,99280.16
2019-02-15T18:46:48.636Z,99275.09
2019-02-15T18:49:19.782Z,99265.77
2019-02-15T18:51:54.407Z,99267.40
2019-02-15T18:54:25.548Z,99263.17
2019-02-15T18:56:56.047Z,99259.88
2019-02-15T18:59:26.655Z,99256.75
2019-02-15T19:02:00.804Z,99262.23
2019-02-15T19:04:31.750Z,99254.54
2019-02-15T19:07:09.381Z,99248.75
2019-02-15T19:09:40.780Z,99247.99
2019-02-15T19:12:11.669Z,99247.99
2019-02-15T19:14:42.261Z,99249.71
2019-02-15T19:17:13.013Z,99253.80
2019-02-15T19:19:44.304Z,99246.53
2019-02-15T19:22:14.988Z,99251.52
2019-02-15T19:24:49.322Z,99251.08
2019-02-15T19:27:23.489Z,99247.53
2019-02-15T19:29:58.428Z,99239.41
2019-02-15T19:32:29.559Z,99238.59
2019-02-15T19:34:59.937Z,99241.19
2019-02-15T19:37:31.327Z,99239.94
2019-02-15T19:40:02.720Z,99240.06
2019-02-15T19:42:33.832Z,99241.75
2019-02-15T19:45:05.560Z,99237.39
2019-02-15T19:47:39.707Z,99229.61
2019-02-15T19:50:14.766Z,99230.47
2019-02-15T19:52:47.307Z,99240.16
2019-02-15T19:55:18.152Z,99235.45
2019-02-15T19:57:48.923Z,99231.78
2019-02-15T20:00:19.533Z,99229.67
2019-02-15T20:02:50.253Z,99221.68
2019-02-15T20:05:21.018Z,99216.41
2019-02-15T20:07:51.891Z,99223.66
2019-02-15T20:10:25.289Z,99224.48
2019-02-15T20:12:56.137Z,99232.35
2019-02-15T20:15:27.319Z,99231.10
2019-02-15T20:17:57.937Z,99221.50
2019-02-15T20:20:28.902Z,99230.78
2019-02-15T20:22:59.620Z,99222.31
2019-02-15T20:25:30.591Z,99235.52
2019-02-15T20:28:02.104Z,99225.70
2019-02-15T20:30:35.008Z,99232.40
2019-02-15T20:33:06.119Z,99231.27
2019-02-15T20:35:37.006Z,99239.80
2019-02-15T20:38:08.620Z,99239.52
2019-02-15T20:40:39.961Z,99241.45
2019-02-15T20:43:10.728Z,99238.03
2019-02-15T20:45:41.690Z,99236.80
2019-02-15T20:48:13.190Z,99227.66
2019-02-15T20:50:44.617Z,99237.03
2019-02-15T20:53:15.306Z,99239.23
2019-02-15T20:55:46.085Z,99235.83
2019-02-15T20:58:17.097Z,99229.14
2019-02-15T21:00:48.250Z,99241.05
2019-02-15T21:03:19.516Z,99251.23
2019-02-15T21:05:50.353Z,99247.28
2019-02-15T21:08:21.155Z,99254.64
2019-02-15T21:10:55.018Z,99248.63
2019-02-15T21:13:25.490Z,99241.95
2019-02-15T21:15:58.963Z,99245.78
2019-02-15T21:18:29.901Z,99228.28
2019-02-15T21:21:01.508Z,99220.59
2019-02-15T21:23:33.372Z,99225.09
2019-02-15T21:26:05.922Z,99216.58
2019-02-15T21:28:37.308Z,99220.52
2019-02-15T21:31:08.219Z,99218.83
2019-02-15T21:33:38.890Z,99218.63
2019-02-15T21:36:10.052Z,99220.02
2019-02-15T21:38:40.771Z,99218.47
2019-02-15T21:41:11.380Z,99225.12
2019-02-15T21:43:42.053Z,99216.95
2019-02-15T21:46:12.819Z,99208.56
2019-02-15T21:48:43.826Z,99204.42
2019-02-15T21:51:16.740Z,99205.07
2019-02-15T21:53:47.688Z,99212.64
2019-02-15T21:56:24.584Z,99217.17
2019-02-15T21:58:55.672Z,99213.80
2019-02-15T22:01:26.580Z,99216.91
2019-02-15T22:03:57.364Z,99218.72
2019-02-15T22:06:30.657Z,99218.89
2019-02-15T22:09:01.839Z,99212.53
2019-02-15T22:11:34.624Z,99225.97
2019-02-15T22:14:05.478Z,99216.73
2019-02-15T22:16:36.737Z,99223.69
2019-02-15T22:19:07.543Z,99221.00
2019-02-15T22:21:38.107Z,99221.75
2019-02-15T22:24:08.985Z,99227.92
2019-02-15T22:26:40.371Z,99227.34
2019-02-15T22:29:11.885Z,99228.64
2019-02-15T22:31:42.988Z,99237.02
2019-02-15T22:34:13.861Z,99233.20
2019-02-15T22:36:44.705Z,99232.03
2019-02-15T22:39:15.791Z,99237.30
2019-02-15T22:41:46.862Z,99237.73
2019-02-15T22:44:17.923Z,99243.34
2019-02-15T22:46:48.853Z,99245.54
2019-02-15T22:49:19.477Z,99252.96
2019-02-15T22:51:50.879Z,99252.61
2019-02-15T22:54:22.582Z,99262.84
2019-02-15T22:56:53.807Z,99254.77
2019-02-15T22:59:24.653Z,99248.13
2019-02-15T23:01:55.298Z,99243.42
2019-02-15T23:04:26.084Z,99249.12
2019-02-15T23:06:57.267Z,99255.70
2019-02-15T23:09:28.473Z,99256.53
2019-02-15T23:11:59.295Z,99258.38
2019-02-15T23:14:30.368Z,99251.00
2019-02-15T23:17:01.182Z,99252.30
2019-02-15T23:19:31.988Z,99255.08
2019-02-15T23:22:02.592Z,99252.49
2019-02-15T23:24:33.283Z,99253.31
2019-02-15T23:27:04.128Z,99245.98
2019-02-15T23:29:34.742Z,99254.18
2019-02-15T23:32:05.503Z,99245.70
2019-02-15T23:34:36.445Z,99248.29
2019-02-15T23:37:07.349Z,99242.25
2019-02-15T23:39:37.864Z,99241.00
2019-02-15T23:42:08.641Z,99233.03
2019-02-15T23:44:39.483Z,99236.17
2019-02-15T23:47:10.161Z,99248.33
2019-02-15T23:49:40.798Z,99243.62
2019-02-15T23:52:11.898Z,99240.91
2019-02-15T23:54:42.859Z,99255.91
2019-02-15T23:57:13.550Z,99240.95
2019-02-15T23:59:44.384Z,99251.39
